Time;durP1;ratioP1;P1;durP2;ratioP2;P2;SDS_P1;SDS_P2;PMS_P1;PMS_P2;Temp;Humidity;BMP_temperature;BMP_pressure;BME280_temperature;BME280_humidity;BME280_pressure;Samples;Min_cycle;Max_cycle;Signal;HPM_P1;HPM_P2
2022/08/26 00:00:46;;;;;;;2.63;2.42;;;23.80;70.00;;;;;;5032817;28;20305;-71
2022/08/26 00:03:14;;;;;;;3.60;2.53;;;23.80;70.00;;;;;;5015327;28;20295;-71
2022/08/26 00:05:42;;;;;;;3.05;2.70;;;23.80;69.90;;;;;;5031094;28;20237;-71
2022/08/26 00:08:10;;;;;;;2.63;2.42;;;23.80;69.90;;;;;;5015125;28;20215;-70
2022/08/26 00:10:36;;;;;;;2.92;2.72;;;23.80;69.90;;;;;;5032077;28;20183;-71
2022/08/26 00:13:03;;;;;;;3.00;2.80;;;23.80;70.00;;;;;;5032214;28;20198;-70
2022/08/26 00:15:29;;;;;;;2.90;2.70;;;23.80;70.00;;;;;;5031042;28;20572;-71
2022/08/26 00:17:55;;;;;;;2.85;2.65;;;23.80;70.00;;;;;;5031495;28;20213;-71
2022/08/26 00:20:26;;;;;;;3.42;3.22;;;23.80;70.00;;;;;;5015214;28;20695;-71
2022/08/26 00:22:52;;;;;;;3.30;3.00;;;23.80;70.00;;;;;;5031662;28;20203;-71
2022/08/26 00:25:19;;;;;;;2.75;2.55;;;23.80;70.00;;;;;;5031178;28;20179;-71
2022/08/26 00:27:46;;;;;;;2.65;2.45;;;23.80;70.00;;;;;;5031657;28;20186;-71
2022/08/26 00:30:17;;;;;;;3.30;3.10;;;23.80;70.00;;;;;;5031466;28;20211;-71
2022/08/26 00:32:44;;;;;;;2.80;2.60;;;23.80;70.00;;;;;;5031985;28;20198;-71
2022/08/26 00:35:11;;;;;;;2.97;2.78;;;23.80;70.00;;;;;;5035161;28;20184;-71
2022/08/26 00:37:39;;;;;;;2.33;2.22;;;23.80;70.00;;;;;;5035858;28;20248;-71
2022/08/26 00:40:11;;;;;;;2.75;2.55;;;23.80;70.00;;;;;;5019693;28;20591;-71
2022/08/26 00:42:37;;;;;;;2.90;2.70;;;23.80;69.90;;;;;;5000135;28;20208;-72
2022/08/26 00:45:04;;;;;;;2.90;2.70;;;23.80;70.00;;;;;;5033502;28;20194;-71
2022/08/26 00:47:37;;;;;;;2.90;2.70;;;23.70;69.80;;;;;;5016232;28;20212;-70
2022/08/26 00:50:12;;;;;;;2.70;2.50;;;23.80;69.90;;;;;;5017363;28;20215;-70
2022/08/26 00:52:40;;;;;;;3.03;2.80;;;23.70;69.70;;;;;;5016900;28;20180;-70
2022/08/26 00:55:39;;;;;;;2.78;2.58;;;23.70;69.80;;;;;;5015741;28;20192;-70
2022/08/26 00:58:07;;;;;;;2.88;2.67;;;23.70;69.90;;;;;;5014373;28;20254;-71
2022/08/26 01:00:34;;;;;;;3.20;3.00;;;23.70;69.90;;;;;;5031048;28;20724;-71
2022/08/26 01:03:02;;;;;;;2.97;2.78;;;23.70;69.90;;;;;;5034972;28;20207;-71
2022/08/26 01:05:29;;;;;;;3.17;2.97;;;23.70;69.90;;;;;;5033942;28;20211;-71
2022/08/26 01:07:55;;;;;;;2.95;2.75;;;23.70;69.90;;;;;;5034962;28;20179;-70
2022/08/26 01:10:27;;;;;;;3.13;2.92;;;23.70;69.90;;;;;;5036150;28;20619;-71
2022/08/26 01:13:05;;;;;;;3.50;3.28;;;23.70;69.90;;;;;;5034722;28;20234;-71
2022/08/26 01:15:47;;;;;;;3.35;3.15;;;23.70;69.90;;;;;;5018134;28;20202;-70
2022/08/26 01:18:14;;;;;;;2.83;2.63;;;23.70;69.80;;;;;;5034519;28;20233;-71
2022/08/26 01:21:10;;;;;;;3.15;2.95;;;23.70;69.80;;;;;;5035549;28;20182;-71
2022/08/26 01:23:49;;;;;;;3.40;3.10;;;23.70;69.90;;;;;;5034524;28;20183;-71
2022/08/26 01:26:25;;;;;;;3.28;3.08;;;23.70;69.90;;;;;;5035316;28;20254;-71
2022/08/26 01:28:55;;;;;;;3.20;3.00;;;23.70;69.90;;;;;;5033197;28;20250;-71
2022/08/26 01:31:25;;;;;;;3.15;2.85;;;23.70;69.90;;;;;;5050816;28;20187;-71
2022/08/26 01:34:16;;;;;;;3.05;2.85;;;23.70;69.90;;;;;;5034572;28;20238;-71
2022/08/26 01:36:43;;;;;;;2.83;2.63;;;23.70;69.80;;;;;;5034204;28;20361;-71
2022/08/26 01:39:10;;;;;;;3.10;2.75;;;23.70;69.80;;;;;;5034343;28;20257;-71
2022/08/26 01:41:37;;;;;;;2.95;2.75;;;23.70;69.90;;;;;;5034608;28;20313;-71
2022/08/26 01:44:08;;;;;;;3.08;2.72;;;23.70;69.90;;;;;;5034037;28;20222;-71
2022/08/26 01:46:34;;;;;;;2.88;2.67;;;23.70;69.90;;;;;;5033965;28;20176;-71
2022/08/26 01:49:03;;;;;;;3.10;2.90;;;23.70;69.90;;;;;;5034073;28;20253;-70
2022/08/26 01:51:35;;;;;;;3.05;2.75;;;23.70;69.90;;;;;;5034067;28;20190;-71
2022/08/26 01:54:04;;;;;;;3.55;3.17;;;23.70;69.90;;;;;;5034908;28;20179;-70
2022/08/26 01:56:31;;;;;;;3.20;3.00;;;23.70;69.90;;;;;;5017256;28;20270;-71
2022/08/26 01:59:01;;;;;;;3.10;2.90;;;23.70;69.90;;;;;;5001329;28;20211;-71
2022/08/26 02:01:28;;;;;;;2.90;2.70;;;23.70;70.70;;;;;;5033454;28;20238;-71
2022/08/26 02:04:15;;;;;;;3.03;2.83;;;23.70;69.90;;;;;;5035011;28;20183;-71
2022/08/26 02:06:42;;;;;;;3.08;2.70;;;23.70;69.80;;;;;;5033337;28;20172;-71
2022/08/26 02:09:08;;;;;;;2.90;2.70;;;23.70;69.80;;;;;;5034026;28;20226;-71
2022/08/26 02:11:34;;;;;;;3.42;3.13;;;23.70;69.80;;;;;;5017287;28;20195;-71
2022/08/26 02:14:13;;;;;;;3.08;2.88;;;23.60;69.70;;;;;;5029964;28;20668;-71
2022/08/26 02:16:44;;;;;;;3.20;3.00;;;23.70;69.70;;;;;;5033489;28;20206;-71
2022/08/26 02:19:26;;;;;;;3.28;2.97;;;23.60;69.70;;;;;;5033253;28;20203;-71
2022/08/26 02:21:52;;;;;;;3.10;2.90;;;23.60;69.70;;;;;;5033200;28;20199;-71
2022/08/26 02:24:23;;;;;;;2.95;2.75;;;23.70;69.80;;;;;;5034416;28;20180;-71
2022/08/26 02:26:50;;;;;;;3.30;3.00;;;23.60;69.70;;;;;;5032725;28;20175;-71
2022/08/26 02:29:41;;;;;;;3.45;3.15;;;23.60;69.80;;;;;;5034165;28;20196;-71
2022/08/26 02:32:09;;;;;;;3.20;2.90;;;23.60;70.50;;;;;;5008692;28;20254;-71
2022/08/26 02:34:35;;;;;;;2.92;2.72;;;23.70;69.80;;;;;;5016527;28;20577;-71
2022/08/26 02:37:09;;;;;;;3.40;3.10;;;23.60;69.70;;;;;;5032140;28;20266;-71
2022/08/26 02:39:39;;;;;;;3.20;3.00;;;23.60;69.60;;;;;;5032916;28;20214;-70
2022/08/26 02:42:06;;;;;;;3.22;3.03;;;23.60;69.60;;;;;;5032774;28;20211;-71
2022/08/26 02:44:32;;;;;;;3.03;2.83;;;23.60;69.60;;;;;;5029903;28;20188;-71
2022/08/26 02:46:58;;;;;;;3.30;3.00;;;23.70;69.70;;;;;;4996053;28;20184;-71
2022/08/26 02:49:26;;;;;;;3.03;2.83;;;23.60;69.60;;;;;;5012963;28;20204;-71
2022/08/26 02:51:53;;;;;;;3.15;2.88;;;23.60;69.70;;;;;;5014016;28;20203;-71
2022/08/26 02:54:20;;;;;;;3.60;3.30;;;23.60;69.60;;;;;;5012860;28;20263;-71
2022/08/26 02:56:47;;;;;;;3.05;2.85;;;23.60;69.60;;;;;;5012007;28;20188;-71
2022/08/26 02:59:13;;;;;;;3.13;2.85;;;23.60;69.60;;;;;;5018011;28;20202;-71
2022/08/26 03:01:40;;;;;;;3.13;2.92;;;23.60;69.70;;;;;;5033721;28;20202;-70
2022/08/26 03:04:10;;;;;;;3.15;2.95;;;23.60;69.60;;;;;;5032174;28;20245;-70
2022/08/26 03:06:37;;;;;;;3.78;3.47;;;23.60;69.60;;;;;;5031820;28;20262;-71
2022/08/26 03:09:04;;;;;;;3.00;2.80;;;23.60;69.60;;;;;;5049228;28;20203;-71
2022/08/26 03:11:31;;;;;;;3.55;3.25;;;23.60;69.60;;;;;;5030275;28;20191;-71
2022/08/26 03:13:59;;;;;;;3.40;3.10;;;23.60;69.60;;;;;;5033758;28;20247;-71
2022/08/26 03:16:25;;;;;;;3.30;3.10;;;23.60;69.60;;;;;;5031791;28;20179;-71
2022/08/26 03:18:51;;;;;;;3.13;2.90;;;23.60;69.60;;;;;;5015799;28;20767;-71
2022/08/26 03:21:18;;;;;;;3.22;3.03;;;23.60;69.60;;;;;;5033997;28;20217;-71
2022/08/26 03:23:45;;;;;;;2.97;2.78;;;23.60;69.60;;;;;;5032497;28;20175;-71
2022/08/26 03:26:14;;;;;;;3.08;2.88;;;23.60;69.60;;;;;;5015727;28;20234;-71
2022/08/26 03:30:38;;;;;;;3.08;2.88;;;23.60;69.60;;;;;;5013207;28;20366;-71
2022/08/26 03:31:27;;;;;;;3.15;2.95;;;23.60;69.60;;;;;;5033342;28;20269;-71
2022/08/26 03:33:53;;;;;;;3.10;2.90;;;23.60;69.60;;;;;;5033779;28;20179;-71
2022/08/26 03:36:21;;;;;;;3.20;3.00;;;23.60;69.60;;;;;;5032933;28;20194;-71
2022/08/26 03:38:47;;;;;;;3.30;2.97;;;23.60;69.60;;;;;;5016081;28;20203;-71
2022/08/26 03:41:13;;;;;;;3.38;3.10;;;23.60;69.60;;;;;;5032407;28;20623;-71
2022/08/26 03:43:40;;;;;;;3.70;3.33;;;23.60;69.60;;;;;;5033498;28;20174;-70
2022/08/26 03:46:10;;;;;;;3.60;3.30;;;23.60;69.60;;;;;;5031651;28;20190;-71
2022/08/26 03:48:38;;;;;;;3.17;2.97;;;23.60;69.60;;;;;;5015434;28;20195;-71
2022/08/26 03:51:12;;;;;;;3.40;3.20;;;23.60;69.60;;;;;;5015788;28;20190;-71
2022/08/26 03:53:37;;;;;;;3.08;2.88;;;23.60;69.60;;;;;;5032140;28;20187;-71
2022/08/26 03:56:04;;;;;;;3.30;3.00;;;23.60;69.60;;;;;;5031810;28;20664;-71
2022/08/26 03:58:31;;;;;;;4.18;3.15;;;23.60;69.50;;;;;;5015379;28;20214;-71
2022/08/26 04:00:57;;;;;;;3.45;3.20;;;23.60;69.50;;;;;;5033131;28;20191;-71
2022/08/26 04:06:08;;;;;;;3.42;3.03;;;23.60;69.50;;;;;;5031149;28;20182;-71
2022/08/26 04:08:34;;;;;;;3.33;3.10;;;23.60;70.20;;;;;;5032211;28;20689;-71
2022/08/26 04:11:01;;;;;;;3.20;3.00;;;23.60;69.40;;;;;;5032028;28;20179;-71
2022/08/26 04:13:28;;;;;;;3.10;2.90;;;23.60;69.40;;;;;;5033620;28;20183;-71
2022/08/26 04:15:53;;;;;;;3.40;3.20;;;23.60;69.40;;;;;;5014869;28;20217;-71
2022/08/26 04:18:20;;;;;;;3.20;3.00;;;23.60;69.40;;;;;;5032149;28;20219;-71
2022/08/26 04:20:46;;;;;;;3.40;3.15;;;23.50;69.30;;;;;;5033467;28;20190;-70
2022/08/26 04:23:13;;;;;;;3.38;3.08;;;23.50;69.30;;;;;;5032175;28;20218;-70
2022/08/26 04:25:39;;;;;;;3.28;3.08;;;23.50;69.40;;;;;;5032072;28;20210;-71
2022/08/26 04:28:06;;;;;;;3.65;3.30;;;23.50;69.30;;;;;;5032959;28;20191;-71
2022/08/26 04:30:36;;;;;;;3.30;3.10;;;23.50;69.40;;;;;;5033735;28;20194;-71
2022/08/26 04:33:03;;;;;;;3.50;3.20;;;23.50;69.40;;;;;;5013692;28;20192;-71
2022/08/26 04:35:33;;;;;;;3.80;3.50;;;23.50;69.40;;;;;;5012318;28;20272;-70
2022/08/26 04:37:58;;;;;;;3.00;2.80;;;23.50;69.30;;;;;;5028919;28;20194;-71
2022/08/26 04:40:26;;;;;;;3.05;2.85;;;23.60;69.50;;;;;;5012831;28;20196;-71
2022/08/26 04:42:52;;;;;;;3.20;3.00;;;23.60;69.50;;;;;;5012533;28;20811;-71
2022/08/26 04:45:18;;;;;;;3.47;3.17;;;23.50;69.30;;;;;;5012193;28;20623;-69
2022/08/26 04:47:45;;;;;;;3.28;3.08;;;23.50;69.30;;;;;;5013667;28;20242;-72
2022/08/26 04:50:12;;;;;;;3.30;3.10;;;23.50;69.30;;;;;;5022251;28;20211;-71
2022/08/26 04:52:37;;;;;;;3.28;3.08;;;23.50;69.30;;;;;;5015606;28;20608;-72
2022/08/26 04:55:06;;;;;;;3.20;3.00;;;23.50;69.30;;;;;;5032745;28;20195;-71
2022/08/26 04:57:32;;;;;;;3.60;3.30;;;23.50;69.30;;;;;;5032286;28;20187;-71
2022/08/26 04:59:58;;;;;;;3.35;3.08;;;23.50;69.30;;;;;;5032773;28;20214;-72
2022/08/26 05:02:24;;;;;;;3.65;3.38;;;23.50;69.30;;;;;;5031117;28;20219;-71
2022/08/26 05:04:50;;;;;;;3.45;3.25;;;23.50;69.30;;;;;;5030964;28;20199;-71
2022/08/26 05:07:16;;;;;;;3.65;3.35;;;23.50;69.30;;;;;;5030947;28;20627;-71
2022/08/26 05:09:42;;;;;;;3.63;3.42;;;23.50;69.30;;;;;;5032440;28;20210;-71
2022/08/26 05:12:08;;;;;;;3.45;3.25;;;23.50;69.30;;;;;;5031346;28;20187;-71
2022/08/26 05:14:34;;;;;;;3.60;3.30;;;23.50;69.30;;;;;;5031615;28;20680;-71
2022/08/26 05:16:59;;;;;;;3.72;3.42;;;23.50;69.30;;;;;;5031368;28;20274;-72
2022/08/26 05:19:25;;;;;;;3.50;3.20;;;23.50;69.30;;;;;;5031627;28;20239;-71
2022/08/26 05:21:51;;;;;;;3.42;3.13;;;23.50;69.30;;;;;;5030842;28;20290;-71
2022/08/26 05:24:17;;;;;;;2.92;2.72;;;23.50;69.30;;;;;;5022340;28;20179;-70
2022/08/26 05:26:43;;;;;;;4.05;3.38;;;23.50;70.40;;;;;;5020802;28;20214;-70
2022/08/26 05:29:09;;;;;;;5.05;2.70;;;23.60;71.40;;;;;;5037202;28;20234;-70
2022/08/26 05:31:35;;;;;;;2.67;2.47;;;23.70;71.60;;;;;;5053360;28;20187;-70
2022/08/26 05:34:03;;;;;;;2.72;2.30;;;23.70;71.60;;;;;;5037868;28;20186;-72
2022/08/26 05:36:32;;;;;;;3.70;2.83;;;23.70;71.70;;;;;;5019630;28;20269;-71
2022/08/26 05:38:58;;;;;;;3.55;2.83;;;23.70;71.90;;;;;;5020422;28;20210;-71
2022/08/26 05:41:31;;;;;;;4.50;2.72;;;23.70;71.90;;;;;;5020138;28;20194;-71
2022/08/26 05:43:59;;;;;;;4.22;2.45;;;23.70;71.90;;;;;;5038231;28;20682;-71
2022/08/26 05:46:26;;;;;;;7.28;2.28;;;23.70;72.00;;;;;;5036833;28;20278;-71
2022/08/26 05:48:54;;;;;;;4.07;2.63;;;23.70;72.10;;;;;;5054568;28;20203;-70
2022/08/26 05:51:20;;;;;;;3.05;2.33;;;23.70;72.20;;;;;;5038161;28;20187;-71
2022/08/26 05:53:46;;;;;;;3.92;2.90;;;23.70;72.10;;;;;;5020392;28;20191;-72
2022/08/26 05:56:14;;;;;;;3.72;2.88;;;23.80;72.20;;;;;;5036337;28;20187;-71
2022/08/26 05:58:41;;;;;;;4.15;2.17;;;23.70;72.20;;;;;;5017255;28;20233;-70
2022/08/26 06:01:15;;;;;;;3.03;2.83;;;23.70;72.10;;;;;;5020054;28;20641;-70
2022/08/26 06:03:44;;;;;;;2.90;2.60;;;23.60;71.90;;;;;;5036037;28;20273;-70
2022/08/26 06:06:19;;;;;;;3.03;2.83;;;23.60;72.30;;;;;;5035402;28;20198;-70
2022/08/26 06:08:46;;;;;;;5.32;3.25;;;23.50;72.20;;;;;;5035263;28;20306;-70
2022/08/26 06:11:17;;;;;;;4.20;3.75;;;23.50;72.20;;;;;;5036360;28;20199;-71
2022/08/26 06:13:43;;;;;;;3.65;3.30;;;23.50;72.30;;;;;;5035224;28;20184;-71
2022/08/26 06:16:15;;;;;;;9.05;4.32;;;23.50;72.70;;;;;;5034929;28;20183;-70
2022/08/26 06:18:44;;;;;;;4.63;3.60;;;23.50;72.80;;;;;;5034899;28;20225;-70
2022/08/26 06:21:37;;;;;;;4.50;4.10;;;23.50;73.20;;;;;;5035667;28;20214;-71
2022/08/26 06:27:00;;;;;;;6.15;4.80;;;23.50;73.10;;;;;;5025969;28;20184;-71
2022/08/26 06:29:27;;;;;;;6.70;5.00;;;23.50;73.40;;;;;;5029599;28;20215;-71
2022/08/26 06:31:55;;;;;;;5.78;4.97;;;23.50;74.00;;;;;;5033066;28;20202;-71
2022/08/26 06:34:22;;;;;;;4.90;4.53;;;23.50;74.00;;;;;;5035033;28;20598;-71
2022/08/26 06:36:48;;;;;;;5.20;4.70;;;23.50;74.30;;;;;;5034423;28;20203;-71
2022/08/26 06:39:17;;;;;;;5.63;4.97;;;23.50;74.60;;;;;;5035249;28;20207;-71
2022/08/26 06:41:44;;;;;;;5.13;4.75;;;23.50;74.80;;;;;;5034079;28;20227;-71
2022/08/26 06:44:16;;;;;;;5.35;4.93;;;23.50;75.10;;;;;;5034118;28;20179;-71
2022/08/26 06:46:43;;;;;;;4.93;4.53;;;23.50;75.20;;;;;;5034423;28;20175;-71
2022/08/26 06:49:09;;;;;;;5.88;5.28;;;23.50;75.10;;;;;;5033733;28;20211;-70
2022/08/26 06:51:37;;;;;;;6.85;5.40;;;23.50;74.80;;;;;;5034236;28;20617;-71
2022/08/26 06:54:06;;;;;;;5.90;5.30;;;23.50;74.70;;;;;;5027348;28;20190;-71
2022/08/26 06:56:39;;;;;;;5.38;4.90;;;23.50;74.40;;;;;;5035903;28;20650;-71
2022/08/26 06:59:06;;;;;;;7.05;5.45;;;23.60;74.40;;;;;;5034370;28;20211;-71
2022/08/26 07:01:37;;;;;;;5.88;5.28;;;23.60;74.30;;;;;;5034947;28;20188;-71
2022/08/26 07:04:05;;;;;;;6.18;5.55;;;23.60;74.40;;;;;;5034153;28;20187;-71
2022/08/26 07:06:37;;;;;;;6.03;5.45;;;23.70;74.90;;;;;;5033440;28;20688;-71
2022/08/26 07:09:06;;;;;;;8.25;5.55;;;23.80;75.00;;;;;;5034967;28;20722;-71
2022/08/26 07:11:34;;;;;;;7.50;5.53;;;23.80;75.00;;;;;;5050285;28;20179;-71
2022/08/26 07:14:00;;;;;;;5.78;5.18;;;23.80;75.10;;;;;;5050063;28;20183;-71
2022/08/26 07:16:26;;;;;;;6.38;5.78;;;23.80;75.10;;;;;;5032855;28;20179;-71
2022/08/26 07:18:52;;;;;;;6.00;5.50;;;23.80;75.20;;;;;;5032039;28;20210;-71
2022/08/26 07:21:19;;;;;;;5.70;5.20;;;23.80;75.10;;;;;;5011393;28;20186;-71
2022/08/26 07:23:45;;;;;;;7.75;5.57;;;23.90;75.20;;;;;;5047726;28;20207;-71
2022/08/26 07:26:16;;;;;;;6.97;5.35;;;23.90;75.00;;;;;;5033940;28;20578;-71
2022/08/26 07:28:45;;;;;;;5.68;5.18;;;23.80;75.00;;;;;;5033121;28;20564;-70
2022/08/26 07:31:14;;;;;;;5.70;5.13;;;23.80;75.00;;;;;;5034661;28;20632;-71
2022/08/26 07:33:41;;;;;;;5.88;5.38;;;23.80;75.00;;;;;;5034613;28;20245;-72
2022/08/26 07:36:10;;;;;;;5.93;5.20;;;23.80;75.20;;;;;;5034101;28;20250;-71
2022/08/26 07:38:38;;;;;;;6.07;5.40;;;23.90;75.10;;;;;;5033093;28;20207;-71
2022/08/26 07:41:07;;;;;;;5.47;4.97;;;23.80;74.80;;;;;;5033415;28;20277;-71
2022/08/26 07:43:35;;;;;;;5.85;5.35;;;23.90;74.90;;;;;;5033043;28;20199;-71
2022/08/26 07:46:03;;;;;;;5.68;4.95;;;23.90;74.70;;;;;;5032800;28;20262;-72
2022/08/26 07:48:28;;;;;;;5.10;4.70;;;23.90;74.50;;;;;;5033283;28;20210;-71
2022/08/26 07:50:54;;;;;;;5.50;5.00;;;23.90;74.70;;;;;;5025807;28;20187;-72
2022/08/26 07:53:21;;;;;;;5.15;4.75;;;24.00;74.60;;;;;;5016612;28;20191;-71
2022/08/26 07:55:48;;;;;;;5.85;5.20;;;24.00;74.60;;;;;;5016442;28;20187;-71
2022/08/26 07:58:14;;;;;;;5.72;4.72;;;24.00;74.40;;;;;;5034101;28;20191;-71
2022/08/26 08:00:40;;;;;;;5.43;4.93;;;24.00;74.40;;;;;;5033471;28;20184;-71
2022/08/26 08:03:07;;;;;;;5.43;4.85;;;24.00;74.30;;;;;;5034123;28;20203;-72
2022/08/26 08:05:35;;;;;;;5.35;4.85;;;24.00;74.20;;;;;;5016524;28;20639;-71
2022/08/26 08:08:08;;;;;;;6.05;4.72;;;24.00;74.10;;;;;;5032862;28;20623;-71
2022/08/26 08:10:36;;;;;;;5.20;4.72;;;24.10;74.20;;;;;;5034470;28;20175;-71
2022/08/26 08:13:05;;;;;;;5.30;4.63;;;24.10;74.00;;;;;;5035956;28;20213;-71
2022/08/26 08:15:33;;;;;;;6.70;4.70;;;24.10;73.90;;;;;;5052983;28;20191;-71
2022/08/26 08:17:59;;;;;;;9.10;4.75;;;24.10;73.80;;;;;;5035418;28;20258;-71
2022/08/26 08:20:27;;;;;;;4.97;4.13;;;24.10;73.70;;;;;;5036118;28;20199;-71
2022/08/26 08:22:54;;;;;;;4.60;4.20;;;24.10;73.70;;;;;;5036642;28;20219;-71
2022/08/26 08:25:21;;;;;;;5.55;4.50;;;24.10;73.90;;;;;;5005062;28;20179;-72
2022/08/26 08:27:49;;;;;;;4.80;4.40;;;24.10;74.00;;;;;;5036378;28;20183;-71
2022/08/26 08:30:20;;;;;;;4.82;4.18;;;24.10;74.00;;;;;;5035031;28;20221;-71
2022/08/26 08:32:47;;;;;;;4.65;4.25;;;24.10;74.00;;;;;;5035964;28;20581;-72
2022/08/26 08:35:16;;;;;;;5.15;4.47;;;24.10;74.00;;;;;;5036873;28;20192;-72
2022/08/26 08:37:43;;;;;;;4.63;4.22;;;24.10;74.70;;;;;;5018309;28;20230;-71
2022/08/26 08:40:11;;;;;;;4.50;3.95;;;24.10;74.10;;;;;;5035403;28;20199;-71
2022/08/26 08:43:03;;;;;;;5.05;4.43;;;24.10;74.20;;;;;;5017064;28;20223;-71
2022/08/26 08:45:35;;;;;;;14.32;4.57;;;24.10;74.10;;;;;;5017297;28;20188;-71
2022/08/26 08:48:15;;;;;;;4.20;3.88;;;24.10;74.10;;;;;;5014822;28;20195;-72
2022/08/26 08:50:49;;;;;;;5.05;4.50;;;24.10;74.30;;;;;;5018409;28;20710;-74
2022/08/26 08:53:21;;;;;;;5.88;4.53;;;24.10;74.60;;;;;;5033152;28;20183;-70
2022/08/26 08:56:27;;;;;;;5.60;4.30;;;24.10;74.40;;;;;;5035190;28;20266;-71
2022/08/26 08:59:22;;;;;;;5.13;4.63;;;24.00;74.50;;;;;;5037391;28;20777;-72
2022/08/26 09:01:51;;;;;;;4.82;3.78;;;24.00;74.80;;;;;;5032170;28;20226;-71
2022/08/26 09:04:45;;;;;;;5.45;3.78;;;23.90;74.70;;;;;;5036226;28;20241;-71
2022/08/26 09:07:49;;;;;;;4.40;4.05;;;23.90;74.80;;;;;;5020084;28;20237;-72
2022/08/26 09:10:56;;;;;;;4.05;3.75;;;23.90;74.90;;;;;;5037284;28;20210;-72
2022/08/26 09:13:22;;;;;;;4.70;4.30;;;23.90;74.90;;;;;;5015204;28;20192;-72
2022/08/26 09:16:15;;;;;;;4.55;4.22;;;23.90;74.70;;;;;;5012510;28;20210;-72
2022/08/26 09:19:27;;;;;;;4.45;4.15;;;23.90;74.80;;;;;;5034724;28;20223;-72
2022/08/26 09:21:59;;;;;;;4.47;4.05;;;23.90;74.80;;;;;;5033991;28;20215;-72
2022/08/26 09:24:29;;;;;;;4.90;4.50;;;23.90;74.70;;;;;;5036367;28;20175;-72
2022/08/26 09:26:57;;;;;;;4.40;4.00;;;23.90;74.60;;;;;;5034231;28;20193;-72
2022/08/26 09:29:25;;;;;;;4.82;4.30;;;23.90;74.50;;;;;;5036241;28;20203;-71
2022/08/26 09:32:13;;;;;;;4.57;4.15;;;23.90;74.60;;;;;;5034840;28;20187;-72
2022/08/26 09:35:01;;;;;;;4.78;4.22;;;23.90;74.40;;;;;;5034836;28;20639;-72
2022/08/26 09:37:46;;;;;;;4.60;4.20;;;24.00;74.50;;;;;;5034391;28;20254;-72
2022/08/26 09:40:21;;;;;;;6.00;3.88;;;24.00;74.40;;;;;;5034159;28;20222;-71
2022/08/26 09:43:05;;;;;;;4.43;4.00;;;24.00;74.50;;;;;;5034269;28;20276;-71
2022/08/26 09:45:31;;;;;;;4.35;3.95;;;24.00;74.50;;;;;;5017812;28;20195;-71
2022/08/26 09:47:57;;;;;;;4.03;3.72;;;24.00;74.30;;;;;;5034535;28;20173;-71
2022/08/26 09:50:28;;;;;;;4.13;3.75;;;24.00;74.30;;;;;;5017544;28;20225;-71
2022/08/26 09:53:22;;;;;;;4.05;3.75;;;24.00;74.40;;;;;;5034171;28;20195;-72
2022/08/26 09:56:05;;;;;;;4.45;4.15;;;24.00;74.30;;;;;;5033963;28;20179;-71
2022/08/26 09:58:35;;;;;;;4.90;4.50;;;24.00;74.30;;;;;;5033917;28;20561;-72
2022/08/26 10:01:07;;;;;;;4.03;3.72;;;24.00;74.50;;;;;;5033780;28;20191;-72
2022/08/26 10:03:37;;;;;;;4.22;3.92;;;24.00;74.40;;;;;;5033587;28;20203;-71
2022/08/26 10:06:03;;;;;;;4.15;3.72;;;23.90;74.30;;;;;;5033275;28;20196;-71
2022/08/26 10:08:40;;;;;;;4.07;3.70;;;24.00;74.50;;;;;;5034940;28;20278;-71
2022/08/26 10:11:41;;;;;;;3.75;3.45;;;23.90;74.50;;;;;;5026541;28;20172;-71
2022/08/26 10:14:23;;;;;;;4.47;4.03;;;23.90;74.50;;;;;;5034247;28;20546;-71
2022/08/26 10:17:18;;;;;;;4.32;3.80;;;23.90;74.60;;;;;;5032803;28;20590;-71
2022/08/26 10:20:01;;;;;;;4.45;4.03;;;23.90;74.50;;;;;;5033873;28;20290;-71
2022/08/26 10:22:49;;;;;;;4.05;3.65;;;23.90;74.50;;;;;;5035019;28;20207;-71
2022/08/26 10:25:23;;;;;;;3.60;3.40;;;23.90;74.50;;;;;;5033642;28;20258;-71
2022/08/26 10:28:06;;;;;;;4.43;3.63;;;23.90;74.50;;;;;;5032868;28;20166;-71
2022/08/26 10:31:03;;;;;;;4.35;3.85;;;23.90;74.50;;;;;;5016425;28;20187;-71
2022/08/26 10:33:30;;;;;;;3.65;3.40;;;23.90;74.50;;;;;;5032859;28;20189;-71
2022/08/26 10:36:02;;;;;;;4.20;3.80;;;23.90;74.40;;;;;;5032740;28;20183;-71
2022/08/26 10:38:34;;;;;;;4.18;3.78;;;23.90;74.30;;;;;;5016030;28;20281;-71
2022/08/26 10:41:13;;;;;;;5.35;3.53;;;23.90;74.20;;;;;;5042196;28;20241;-71
2022/08/26 10:43:51;;;;;;;3.58;3.28;;;23.90;74.10;;;;;;5033203;28;20219;-72
2022/08/26 10:46:22;;;;;;;4.47;3.38;;;23.90;74.00;;;;;;5033135;28;20180;-73
2022/08/26 10:48:57;;;;;;;3.55;3.25;;;23.90;74.00;;;;;;5032443;28;20199;-71
2022/08/26 10:51:34;;;;;;;3.67;3.38;;;23.90;74.10;;;;;;5032334;28;20193;-71
2022/08/26 10:54:12;;;;;;;4.20;3.80;;;23.90;73.90;;;;;;5032668;28;20182;-71
2022/08/26 10:57:37;;;;;;;3.78;3.47;;;23.90;73.90;;;;;;5032392;28;20182;-71
2022/08/26 11:03:40;;;;;;;4.28;3.60;;;23.90;73.80;;;;;;5014288;28;20222;-71
2022/08/26 11:06:35;;;;;;;3.92;3.63;;;23.90;73.70;;;;;;5014993;28;20187;-71
2022/08/26 11:09:05;;;;;;;3.30;3.10;;;23.90;73.70;;;;;;5027510;28;20219;-71
2022/08/26 11:11:40;;;;;;;3.83;3.42;;;23.90;73.60;;;;;;5032110;28;20198;-71
2022/08/26 11:14:18;;;;;;;5.50;4.18;;;23.90;73.50;;;;;;5033228;28;20623;-71
2022/08/26 11:16:53;;;;;;;3.78;3.47;;;23.90;73.50;;;;;;5031854;28;20171;-71
2022/08/26 11:19:40;;;;;;;4.38;3.80;;;23.90;73.30;;;;;;5032946;28;20309;-71
2022/08/26 11:22:27;;;;;;;5.00;4.03;;;23.90;74.10;;;;;;5032980;28;20215;-71
2022/08/26 11:24:55;;;;;;;3.67;3.38;;;23.90;73.50;;;;;;5031940;28;20191;-71
2022/08/26 11:27:24;;;;;;;3.17;2.85;;;23.90;73.50;;;;;;5031202;28;20179;-71
2022/08/26 11:30:11;;;;;;;3.67;3.30;;;23.90;73.50;;;;;;5032727;28;20282;-71
2022/08/26 11:32:39;;;;;;;4.00;3.70;;;23.90;73.50;;;;;;5031886;28;20175;-72
2022/08/26 11:35:18;;;;;;;3.65;3.35;;;24.00;73.60;;;;;;5015135;28;20194;-72
2022/08/26 11:37:46;;;;;;;4.13;3.72;;;23.90;73.50;;;;;;5028962;28;20274;-71
2022/08/26 11:40:23;;;;;;;3.50;3.20;;;23.90;74.20;;;;;;5032456;28;20294;-71
2022/08/26 11:42:56;;;;;;;3.78;3.40;;;23.90;73.40;;;;;;5046252;28;20207;-71
2022/08/26 11:45:42;;;;;;;3.78;3.50;;;23.90;73.20;;;;;;5031421;28;20171;-71
2022/08/26 11:48:27;;;;;;;3.80;3.50;;;24.00;73.30;;;;;;5030693;28;20190;-72
2022/08/26 11:51:06;;;;;;;4.47;3.78;;;24.00;73.30;;;;;;5031788;28;20271;-72
2022/08/26 11:53:43;;;;;;;3.67;3.38;;;24.00;73.30;;;;;;5032504;28;20175;-72
2022/08/26 11:56:31;;;;;;;3.95;3.60;;;23.90;73.20;;;;;;5030854;28;20191;-72
2022/08/26 11:59:02;;;;;;;4.30;3.53;;;24.00;73.30;;;;;;5032758;28;20203;-72
2022/08/26 12:01:34;;;;;;;4.55;3.55;;;24.00;73.30;;;;;;5031638;28;20171;-72
2022/08/26 12:04:04;;;;;;;5.00;3.78;;;24.00;73.30;;;;;;5031594;28;20172;-72
2022/08/26 12:06:44;;;;;;;4.32;3.67;;;24.00;73.30;;;;;;5032651;28;20163;-73
2022/08/26 12:09:26;;;;;;;3.58;3.28;;;24.00;73.30;;;;;;5031313;28;20211;-72
2022/08/26 12:12:20;;;;;;;4.15;3.60;;;24.00;73.30;;;;;;5031423;28;20191;-73
2022/08/26 12:14:46;;;;;;;4.38;3.97;;;24.00;73.30;;;;;;5031693;28;20723;-73
2022/08/26 12:17:26;;;;;;;3.95;3.50;;;24.00;73.30;;;;;;5031518;28;20213;-72
2022/08/26 12:19:52;;;;;;;3.97;3.67;;;24.00;73.30;;;;;;5048232;28;20211;-72
2022/08/26 12:22:47;;;;;;;3.92;3.58;;;24.00;73.30;;;;;;5014550;28;20230;-73
2022/08/26 12:25:23;;;;;;;5.03;3.90;;;24.10;73.40;;;;;;5010744;28;20187;-72
2022/08/26 12:27:50;;;;;;;4.25;3.88;;;24.10;73.40;;;;;;5010814;28;20168;-72
2022/08/26 12:30:21;;;;;;;4.28;3.90;;;24.10;73.40;;;;;;4996815;28;20204;-72
2022/08/26 12:33:03;;;;;;;4.25;3.90;;;24.10;73.40;;;;;;5017317;28;20175;-72
2022/08/26 12:35:30;;;;;;;4.00;3.70;;;24.10;73.40;;;;;;5031814;28;20698;-71
2022/08/26 12:37:57;;;;;;;4.35;3.95;;;24.10;73.40;;;;;;5015830;28;20191;-72
2022/08/26 12:40:44;;;;;;;4.90;3.92;;;24.00;73.30;;;;;;5029780;28;20175;-72
2022/08/26 12:43:15;;;;;;;3.92;3.53;;;24.10;73.40;;;;;;5016271;28;20292;-72
2022/08/26 12:45:55;;;;;;;4.55;3.88;;;24.10;73.30;;;;;;5016265;28;20540;-72
2022/08/26 12:48:29;;;;;;;4.00;3.60;;;24.10;73.20;;;;;;5014398;28;20204;-72
2022/08/26 12:50:56;;;;;;;3.75;3.45;;;24.10;73.20;;;;;;5031601;28;20180;-73
2022/08/26 12:53:29;;;;;;;5.47;4.07;;;24.10;73.30;;;;;;5015864;28;20192;-72
2022/08/26 12:56:18;;;;;;;4.40;4.00;;;24.10;73.40;;;;;;5031368;28;20173;-72
2022/08/26 12:58:58;;;;;;;3.88;3.58;;;24.10;73.40;;;;;;5016070;28;20204;-73
2022/08/26 13:01:24;;;;;;;4.47;4.10;;;24.10;73.40;;;;;;5014428;28;20231;-72
2022/08/26 13:03:50;;;;;;;4.45;4.15;;;24.10;73.20;;;;;;5015018;28;20219;-71
2022/08/26 13:06:22;;;;;;;3.78;3.42;;;24.10;73.10;;;;;;5039438;28;20192;-71
2022/08/26 13:09:04;;;;;;;3.97;3.67;;;24.10;73.00;;;;;;5035410;28;20286;-72
2022/08/26 13:11:52;;;;;;;4.28;3.80;;;24.10;73.00;;;;;;5034333;28;20184;-71
2022/08/26 13:14:22;;;;;;;3.88;3.58;;;24.10;73.10;;;;;;5024695;28;20237;-72
2022/08/26 13:16:48;;;;;;;4.38;3.63;;;24.10;73.10;;;;;;5033789;28;20187;-72
2022/08/26 13:19:21;;;;;;;4.13;3.83;;;24.10;73.10;;;;;;5035119;28;20222;-72
2022/08/26 13:21:53;;;;;;;4.95;4.10;;;24.10;73.20;;;;;;5050880;28;20187;-72